Time;durP1;ratioP1;P1;durP2;ratioP2;P2;SDS_P1;SDS_P2;PMS_P1;PMS_P2;Temp;Humidity;BMP_temperature;BMP_pressure;BME280_temperature;BME280_humidity;BME280_pressure;Samples;Min_cycle;Max_cycle;Signal;HPM_P1;HPM_P2
2021/09/21 00:02:11;;;;;;;7.70;6.55;;;;;;;;;;5094137;28;20024;-81
2021/09/21 00:04:37;;;;;;;7.43;6.72;;;;;;;;;;5094273;28;20024;-81
2021/09/21 00:07:03;;;;;;;7.90;6.18;;;;;;;;;;5094328;28;20420;-81
2021/09/21 00:09:29;;;;;;;8.20;6.30;;;;;;;;;;5094452;28;20390;-81
2021/09/21 00:11:55;;;;;;;8.45;7.30;;;;;;;;;;5094182;28;20047;-81
2021/09/21 00:14:21;;;;;;;7.22;6.22;;;;;;;;;;5093711;28;20024;-81
2021/09/21 00:16:47;;;;;;;8.25;7.38;;;;;;;;;;5093750;28;20021;-81
2021/09/21 00:19:13;;;;;;;8.70;6.38;;;;;;;;;;5094543;28;20071;-81
2021/09/21 00:21:39;;;;;;;7.18;5.97;;;;;;;;;;5094246;28;20036;-81
2021/09/21 00:24:05;;;;;;;7.85;7.05;;;;;;;;;;5093831;28;20024;-81
2021/09/21 00:26:32;;;;;;;8.50;7.35;;;;;;;;;;5093871;28;20153;-81
2021/09/21 00:28:58;;;;;;;7.75;6.85;;;;;;;;;;5093857;28;20017;-81
2021/09/21 00:31:24;;;;;;;7.40;6.50;;;;;;;;;;5093749;28;20059;-81
2021/09/21 00:33:55;;;;;;;10.35;7.22;;;;;;;;;;5094092;28;20025;-81
2021/09/21 00:36:21;;;;;;;7.57;6.40;;;;;;;;;;5093940;28;20047;-81
2021/09/21 00:38:47;;;;;;;7.72;6.90;;;;;;;;;;5093818;28;20020;-81
2021/09/21 00:41:13;;;;;;;7.75;6.82;;;;;;;;;;5093706;28;20035;-81
2021/09/21 00:43:39;;;;;;;9.98;6.53;;;;;;;;;;5093742;28;20028;-81
2021/09/21 00:46:05;;;;;;;8.95;8.00;;;;;;;;;;5093618;28;20050;-81
2021/09/21 00:48:31;;;;;;;7.80;6.28;;;;;;;;;;5094364;28;20028;-81
2021/09/21 00:50:57;;;;;;;9.10;6.93;;;;;;;;;;5093678;28;20024;-81
2021/09/21 00:53:24;;;;;;;7.65;6.85;;;;;;;;;;5093814;28;20031;-81
2021/09/21 00:55:51;;;;;;;10.88;7.22;;;;;;;;;;5093946;28;20059;-81
2021/09/21 00:58:17;;;;;;;7.28;6.53;;;;;;;;;;5095069;28;20055;-81
2021/09/21 01:00:43;;;;;;;10.18;7.90;;;;;;;;;;5097306;28;20135;-81
2021/09/21 01:03:09;;;;;;;6.72;6.13;;;;;;;;;;5097826;28;20027;-81
2021/09/21 01:05:36;;;;;;;13.82;7.15;;;;;;;;;;5097691;28;20035;-81
2021/09/21 01:08:02;;;;;;;8.43;7.57;;;;;;;;;;5097155;28;20063;-81
2021/09/21 01:10:29;;;;;;;8.25;7.18;;;;;;;;;;5097300;28;20036;-81
2021/09/21 01:12:56;;;;;;;8.05;7.15;;;;;;;;;;5096922;28;20050;-80
2021/09/21 01:15:22;;;;;;;9.73;8.73;;;;;;;;;;5097137;28;20032;-81
2021/09/21 01:17:48;;;;;;;8.57;7.72;;;;;;;;;;5097266;28;20047;-81
2021/09/21 01:20:14;;;;;;;10.23;7.82;;;;;;;;;;5096781;28;20032;-81
2021/09/21 01:22:40;;;;;;;7.80;7.10;;;;;;;;;;5097036;28;20031;-81
2021/09/21 01:25:07;;;;;;;9.73;7.03;;;;;;;;;;5097202;28;20107;-81
2021/09/21 01:27:33;;;;;;;10.25;8.07;;;;;;;;;;5096699;28;20028;-81
2021/09/21 01:29:59;;;;;;;8.38;6.63;;;;;;;;;;5096473;28;20111;-80
2021/09/21 01:32:25;;;;;;;8.05;7.07;;;;;;;;;;5097363;28;20021;-81
2021/09/21 01:34:51;;;;;;;11.15;7.55;;;;;;;;;;5096887;28;20073;-81
2021/09/21 01:37:17;;;;;;;10.85;7.43;;;;;;;;;;5096971;28;20020;-81
2021/09/21 01:39:43;;;;;;;10.77;8.23;;;;;;;;;;5096694;28;20048;-81
2021/09/21 01:42:10;;;;;;;8.35;7.45;;;;;;;;;;5096182;28;20099;-81
2021/09/21 01:44:36;;;;;;;7.80;6.68;;;;;;;;;;5096275;28;20028;-81
2021/09/21 01:47:04;;;;;;;8.02;7.25;;;;;;;;;;5097105;28;20158;-81
2021/09/21 01:49:38;;;;;;;8.98;7.13;;;;;;;;;;5096364;28;20020;-81
2021/09/21 01:52:15;;;;;;;8.90;8.02;;;;;;;;;;5096393;28;20115;-81
2021/09/21 01:55:04;;;;;;;6.85;6.15;;;;;;;;;;5096157;28;20477;-81
2021/09/21 02:00:13;;;;;;;9.98;7.55;;;;;;;;;;5095361;28;20043;-81
2021/09/21 02:02:39;;;;;;;8.43;7.53;;;;;;;;;;5096269;28;20020;-80
2021/09/21 02:05:06;;;;;;;9.02;7.85;;;;;;;;;;5096076;28;20035;-81
2021/09/21 02:07:32;;;;;;;7.53;6.75;;;;;;;;;;5095707;28;20020;-81
2021/09/21 02:09:58;;;;;;;9.70;7.85;;;;;;;;;;5094947;28;20028;-81
2021/09/21 02:12:24;;;;;;;11.10;7.88;;;;;;;;;;5095926;28;20046;-81
2021/09/21 02:14:50;;;;;;;8.40;7.50;;;;;;;;;;5096194;28;20081;-81
2021/09/21 02:17:16;;;;;;;8.95;7.72;;;;;;;;;;5096009;28;20051;-81
2021/09/21 02:19:42;;;;;;;10.30;8.05;;;;;;;;;;5096015;28;20022;-81
2021/09/21 02:22:08;;;;;;;9.52;8.07;;;;;;;;;;5095269;28;20024;-80
2021/09/21 02:24:34;;;;;;;12.23;7.45;;;;;;;;;;5096481;28;20032;-81
2021/09/21 02:27:02;;;;;;;8.43;7.55;;;;;;;;;;5095778;28;20020;-81
2021/09/21 02:29:28;;;;;;;8.68;7.43;;;;;;;;;;5095791;28;20133;-81
2021/09/21 02:31:54;;;;;;;8.30;7.50;;;;;;;;;;5095647;28;20032;-81
2021/09/21 02:34:20;;;;;;;19.75;8.82;;;;;;;;;;5095467;28;20028;-81
2021/09/21 02:36:46;;;;;;;7.32;6.72;;;;;;;;;;5095345;28;20024;-81
2021/09/21 02:39:12;;;;;;;26.95;8.00;;;;;;;;;;5095870;28;20035;-81
2021/09/21 02:41:38;;;;;;;7.63;6.93;;;;;;;;;;5095675;28;20036;-81
2021/09/21 02:44:04;;;;;;;9.23;7.72;;;;;;;;;;5095204;28;20036;-81
2021/09/21 02:46:31;;;;;;;8.80;7.25;;;;;;;;;;5095464;28;20027;-81
2021/09/21 02:48:57;;;;;;;8.18;7.25;;;;;;;;;;5095048;28;20351;-81
2021/09/21 02:51:23;;;;;;;8.05;7.25;;;;;;;;;;5094812;28;20028;-80
2021/09/21 02:53:49;;;;;;;7.82;7.13;;;;;;;;;;5095011;28;20106;-81
2021/09/21 02:56:15;;;;;;;9.48;8.23;;;;;;;;;;5094839;28;20064;-81
2021/09/21 02:58:41;;;;;;;8.05;6.82;;;;;;;;;;5095401;28;20024;-80
2021/09/21 03:01:07;;;;;;;8.73;7.85;;;;;;;;;;5094842;28;20032;-80
2021/09/21 03:03:42;;;;;;;7.85;7.07;;;;;;;;;;5094877;28;20034;-81
2021/09/21 03:06:18;;;;;;;15.38;8.15;;;;;;;;;;5094709;28;20028;-80
2021/09/21 03:08:44;;;;;;;16.50;7.72;;;;;;;;;;5095220;28;20111;-80
2021/09/21 03:11:15;;;;;;;8.32;7.32;;;;;;;;;;5095146;28;20473;-80
2021/09/21 03:19:13;;;;;;;19.27;12.50;;;;;;;;;;5094463;28;20086;-80
2021/09/21 03:21:39;;;;;;;17.17;11.13;;;;;;;;;;5094377;28;20027;-81
2021/09/21 03:24:05;;;;;;;16.65;10.75;;;;;;;;;;5094562;28;20052;-80
2021/09/21 03:26:31;;;;;;;23.23;14.48;;;;;;;;;;5093696;28;20497;-80
2021/09/21 03:28:57;;;;;;;18.58;11.65;;;;;;;;;;5094437;28;20488;-80
2021/09/21 03:31:23;;;;;;;19.38;11.63;;;;;;;;;;5094746;28;20020;-81
2021/09/21 03:33:49;;;;;;;14.32;11.15;;;;;;;;;;5094662;28;20026;-81
2021/09/21 03:36:15;;;;;;;17.75;11.13;;;;;;;;;;5094355;28;20024;-80
2021/09/21 03:38:41;;;;;;;19.67;10.45;;;;;;;;;;5094583;28;20111;-81
2021/09/21 03:41:07;;;;;;;17.13;10.73;;;;;;;;;;5094420;28;20038;-80
2021/09/21 03:43:34;;;;;;;19.45;10.65;;;;;;;;;;5094351;28;20016;-80
2021/09/21 03:46:00;;;;;;;20.90;10.27;;;;;;;;;;5094352;28;20028;-80
2021/09/21 03:48:26;;;;;;;22.02;10.63;;;;;;;;;;5094479;28;20103;-81
2021/09/21 03:50:52;;;;;;;20.80;10.07;;;;;;;;;;5094695;28;20028;-81
2021/09/21 03:53:18;;;;;;;16.75;10.85;;;;;;;;;;5094349;28;20107;-81
2021/09/21 03:55:44;;;;;;;12.05;9.20;;;;;;;;;;5094371;28;20050;-81
2021/09/21 03:58:10;;;;;;;16.27;10.35;;;;;;;;;;5093671;28;20083;-81
2021/09/21 04:00:36;;;;;;;16.73;9.88;;;;;;;;;;5094248;28;20036;-81
2021/09/21 04:03:02;;;;;;;12.20;9.35;;;;;;;;;;5094222;28;20104;-81
2021/09/21 04:05:28;;;;;;;12.07;10.07;;;;;;;;;;5094496;28;20021;-81
2021/09/21 04:07:54;;;;;;;14.65;9.52;;;;;;;;;;5094225;28;20024;-80
2021/09/21 04:10:20;;;;;;;11.38;9.10;;;;;;;;;;5093983;28;20481;-80
2021/09/21 04:12:46;;;;;;;17.67;9.18;;;;;;;;;;5093892;28;20421;-80
2021/09/21 04:15:12;;;;;;;13.52;9.18;;;;;;;;;;5094233;28;20043;-80
2021/09/21 04:17:38;;;;;;;9.32;8.27;;;;;;;;;;5094401;28;20461;-80
2021/09/21 04:20:05;;;;;;;10.57;8.52;;;;;;;;;;5093960;28;20074;-80
2021/09/21 04:22:31;;;;;;;10.10;8.45;;;;;;;;;;5094337;28;20024;-81
2021/09/21 04:24:57;;;;;;;14.02;8.23;;;;;;;;;;5094382;28;20028;-81
2021/09/21 04:27:23;;;;;;;10.75;8.15;;;;;;;;;;5093972;28;20031;-80
2021/09/21 04:29:54;;;;;;;10.32;8.25;;;;;;;;;;5093739;28;20385;-80
2021/09/21 04:32:20;;;;;;;10.65;9.10;;;;;;;;;;5093789;28;20024;-80
2021/09/21 04:34:47;;;;;;;10.15;8.05;;;;;;;;;;5097981;28;20031;-80
2021/09/21 04:37:13;;;;;;;11.68;9.32;;;;;;;;;;5096840;28;20028;-81
2021/09/21 04:39:41;;;;;;;12.75;7.80;;;;;;;;;;5097533;28;20023;-83
2021/09/21 04:42:08;;;;;;;9.75;8.85;;;;;;;;;;5097385;28;20095;-82
2021/09/21 04:44:34;;;;;;;11.77;9.73;;;;;;;;;;5097272;28;20028;-82
2021/09/21 04:47:00;;;;;;;13.23;8.75;;;;;;;;;;5097798;28;20051;-81
2021/09/21 04:49:26;;;;;;;9.20;7.88;;;;;;;;;;5097208;28;20153;-77
2021/09/21 04:51:52;;;;;;;12.00;8.00;;;;;;;;;;5097270;28;20023;-78
2021/09/21 04:54:18;;;;;;;11.20;8.45;;;;;;;;;;5096812;28;20028;-77
2021/09/21 04:56:44;;;;;;;14.50;7.32;;;;;;;;;;5096800;28;20090;-76
2021/09/21 04:59:10;;;;;;;9.32;7.57;;;;;;;;;;5097295;28;20028;-77
2021/09/21 05:01:37;;;;;;;12.70;8.98;;;;;;;;;;5097493;28;20038;-82
2021/09/21 05:04:03;;;;;;;10.95;9.02;;;;;;;;;;5096860;28;20023;-84
2021/09/21 05:06:29;;;;;;;11.90;7.93;;;;;;;;;;5096846;28;20081;-80
2021/09/21 05:08:55;;;;;;;10.15;7.55;;;;;;;;;;5097591;28;20101;-84
2021/09/21 05:11:22;;;;;;;17.30;9.30;;;;;;;;;;5096462;28;20059;-79
2021/09/21 05:13:48;;;;;;;12.85;7.85;;;;;;;;;;5097036;28;20043;-79
2021/09/21 05:16:14;;;;;;;11.15;8.50;;;;;;;;;;5096724;28;20031;-80
2021/09/21 05:18:40;;;;;;;13.75;8.50;;;;;;;;;;5096389;28;20412;-77
2021/09/21 05:21:06;;;;;;;26.45;7.90;;;;;;;;;;5096834;28;20350;-86
2021/09/21 05:23:32;;;;;;;12.48;7.63;;;;;;;;;;5096413;28;20020;-80
2021/09/21 05:25:58;;;;;;;32.22;10.30;;;;;;;;;;5096475;28;20035;-76
2021/09/21 05:28:24;;;;;;;18.10;9.40;;;;;;;;;;5096478;28;20501;-79
2021/09/21 05:30:50;;;;;;;14.63;8.38;;;;;;;;;;5096812;28;20036;-80
2021/09/21 05:33:16;;;;;;;18.88;8.10;;;;;;;;;;5096784;28;20085;-82
2021/09/21 05:35:42;;;;;;;13.02;8.57;;;;;;;;;;5096250;28;20024;-83
2021/09/21 05:38:08;;;;;;;16.15;7.78;;;;;;;;;;5096532;28;20063;-81
2021/09/21 05:40:34;;;;;;;11.63;7.97;;;;;;;;;;5096536;28;20036;-79
2021/09/21 05:43:00;;;;;;;12.40;8.75;;;;;;;;;;5096545;28;20031;-79
2021/09/21 05:45:26;;;;;;;11.18;8.35;;;;;;;;;;5096735;28;20457;-80
2021/09/21 05:47:54;;;;;;;10.90;7.80;;;;;;;;;;5096662;28;20095;-79
2021/09/21 05:50:20;;;;;;;17.88;10.55;;;;;;;;;;5096254;28;20085;-79
2021/09/21 05:52:46;;;;;;;10.82;8.25;;;;;;;;;;5096223;28;20024;-79
2021/09/21 05:55:13;;;;;;;9.05;8.25;;;;;;;;;;5096211;28;20028;-81
2021/09/21 05:57:40;;;;;;;9.38;8.43;;;;;;;;;;5095781;28;20069;-81
2021/09/21 06:00:06;;;;;;;16.35;8.75;;;;;;;;;;5096051;28;20036;-81
2021/09/21 06:02:32;;;;;;;10.70;8.88;;;;;;;;;;5096102;28;20024;-80
2021/09/21 06:04:59;;;;;;;10.57;8.65;;;;;;;;;;5096148;28;20030;-80
2021/09/21 06:07:25;;;;;;;8.60;7.78;;;;;;;;;;5096037;28;20024;-80
2021/09/21 06:09:51;;;;;;;16.20;8.98;;;;;;;;;;5095922;28;20064;-80
2021/09/21 06:12:17;;;;;;;8.95;7.82;;;;;;;;;;5095757;28;20085;-78
2021/09/21 06:14:43;;;;;;;10.07;9.00;;;;;;;;;;5096596;28;20024;-80
2021/09/21 06:17:09;;;;;;;10.55;8.95;;;;;;;;;;5095869;28;20033;-80
2021/09/21 06:19:35;;;;;;;10.88;9.73;;;;;;;;;;5095786;28;20415;-81
2021/09/21 06:22:01;;;;;;;8.68;7.70;;;;;;;;;;5095537;28;20035;-81
2021/09/21 06:24:27;;;;;;;9.25;8.20;;;;;;;;;;5095694;28;20027;-81
2021/09/21 06:26:54;;;;;;;8.88;8.07;;;;;;;;;;5095743;28;20181;-81
2021/09/21 06:29:20;;;;;;;9.27;7.82;;;;;;;;;;5095720;28;20035;-82
2021/09/21 06:31:46;;;;;;;10.10;9.02;;;;;;;;;;5095795;28;20055;-82
2021/09/21 06:34:12;;;;;;;11.02;8.52;;;;;;;;;;5095251;28;20074;-82
2021/09/21 06:36:38;;;;;;;8.77;7.88;;;;;;;;;;5095500;28;20027;-82
2021/09/21 06:39:04;;;;;;;10.13;9.05;;;;;;;;;;5095543;28;20055;-81
2021/09/21 06:41:30;;;;;;;14.00;8.50;;;;;;;;;;5095332;28;20508;-81
2021/09/21 06:43:57;;;;;;;9.27;8.38;;;;;;;;;;5095505;28;20448;-80
2021/09/21 06:46:23;;;;;;;9.90;8.90;;;;;;;;;;5095171;28;20590;-80
2021/09/21 06:48:49;;;;;;;8.60;7.68;;;;;;;;;;5095296;28;20024;-79
2021/09/21 06:51:17;;;;;;;8.77;7.95;;;;;;;;;;5095367;28;20024;-80
2021/09/21 06:53:43;;;;;;;9.55;8.50;;;;;;;;;;5094934;28;20077;-79
2021/09/21 06:56:09;;;;;;;8.77;7.93;;;;;;;;;;5094108;28;20099;-81
2021/09/21 06:58:35;;;;;;;10.93;8.40;;;;;;;;;;5095238;28;20020;-78
2021/09/21 07:01:02;;;;;;;10.77;8.02;;;;;;;;;;5094917;28;20063;-79
2021/09/21 07:03:28;;;;;;;10.18;8.50;;;;;;;;;;5094950;28;20031;-79
2021/09/21 07:05:54;;;;;;;10.75;8.70;;;;;;;;;;5095276;28;20108;-79
2021/09/21 07:08:20;;;;;;;9.10;7.93;;;;;;;;;;5094740;28;20026;-80
2021/09/21 07:10:46;;;;;;;9.00;8.13;;;;;;;;;;5094982;28;20012;-80
2021/09/21 07:13:13;;;;;;;9.95;8.95;;;;;;;;;;5095369;28;20107;-81
2021/09/21 07:15:39;;;;;;;9.32;8.40;;;;;;;;;;5095165;28;20088;-81
2021/09/21 07:18:05;;;;;;;8.68;7.88;;;;;;;;;;5094551;28;20023;-78
2021/09/21 07:20:31;;;;;;;14.10;8.95;;;;;;;;;;5094768;28;20068;-79
2021/09/21 07:22:57;;;;;;;10.70;8.70;;;;;;;;;;5094665;28;20036;-81
2021/09/21 07:25:23;;;;;;;11.63;8.63;;;;;;;;;;5094715;28;20028;-81
2021/09/21 07:27:51;;;;;;;8.45;7.60;;;;;;;;;;5094914;28;20030;-81
2021/09/21 07:30:17;;;;;;;9.60;8.57;;;;;;;;;;5094386;28;20032;-81
2021/09/21 07:32:43;;;;;;;11.05;7.88;;;;;;;;;;5094688;28;20052;-81
2021/09/21 07:35:09;;;;;;;10.05;9.02;;;;;;;;;;5094443;28;20024;-81
2021/09/21 07:37:35;;;;;;;9.98;8.80;;;;;;;;;;5094468;28;20016;-84
2021/09/21 07:40:01;;;;;;;9.15;8.25;;;;;;;;;;5094258;28;20096;-80
2021/09/21 07:42:28;;;;;;;10.38;7.85;;;;;;;;;;5094455;28;20028;-79
2021/09/21 07:44:54;;;;;;;8.55;7.75;;;;;;;;;;5094871;28;20092;-82
2021/09/21 07:47:21;;;;;;;9.23;8.32;;;;;;;;;;5094483;28;20059;-80
2021/09/21 07:49:47;;;;;;;9.20;8.30;;;;;;;;;;5094375;28;20020;-80
2021/09/21 07:52:13;;;;;;;10.43;8.50;;;;;;;;;;5093854;28;20032;-78
2021/09/21 07:54:40;;;;;;;8.85;7.95;;;;;;;;;;5094363;28;20473;-79
2021/09/21 07:57:06;;;;;;;9.57;8.73;;;;;;;;;;5094030;28;20047;-80
2021/09/21 07:59:32;;;;;;;9.20;8.30;;;;;;;;;;5094241;28;20454;-80
2021/09/21 08:01:58;;;;;;;9.48;8.63;;;;;;;;;;5094217;28;20147;-80
2021/09/21 08:04:24;;;;;;;9.85;8.68;;;;;;;;;;5094260;28;20069;-80
2021/09/21 08:06:50;;;;;;;8.02;7.22;;;;;;;;;;5094241;28;20024;-81
2021/09/21 08:09:16;;;;;;;9.50;8.57;;;;;;;;;;5097439;28;20053;-81
2021/09/21 08:11:43;;;;;;;9.20;8.38;;;;;;;;;;5098428;28;20040;-81
2021/09/21 08:14:09;;;;;;;9.88;8.55;;;;;;;;;;5098280;28;20024;-81
2021/09/21 08:16:36;;;;;;;10.23;8.25;;;;;;;;;;5098570;28;20057;-82
2021/09/21 08:19:02;;;;;;;9.15;8.35;;;;;;;;;;5098265;28;20373;-78
2021/09/21 08:21:28;;;;;;;9.18;8.32;;;;;;;;;;5097740;28;20035;-81
2021/09/21 08:23:55;;;;;;;8.40;7.60;;;;;;;;;;5097624;28;20027;-80
2021/09/21 08:26:21;;;;;;;8.35;7.55;;;;;;;;;;5098030;28;20025;-82
2021/09/21 08:28:47;;;;;;;11.05;8.77;;;;;;;;;;5098434;28;20085;-80
2021/09/21 08:31:13;;;;;;;8.50;7.53;;;;;;;;;;5097884;28;20035;-79
2021/09/21 08:33:39;;;;;;;8.32;7.18;;;;;;;;;;5097746;28;20111;-79
2021/09/21 08:36:05;;;;;;;8.15;7.53;;;;;;;;;;5097717;28;20024;-81
2021/09/21 08:38:31;;;;;;;9.20;7.88;;;;;;;;;;5097715;28;20414;-80
2021/09/21 08:40:57;;;;;;;9.32;7.75;;;;;;;;;;5097680;28;20476;-80
2021/09/21 08:43:23;;;;;;;8.85;7.50;;;;;;;;;;5098096;28;20027;-80
2021/09/21 08:45:49;;;;;;;9.32;8.43;;;;;;;;;;5097958;28;20025;-79
2021/09/21 08:48:15;;;;;;;8.35;7.50;;;;;;;;;;5097692;28;20023;-82
2021/09/21 08:50:41;;;;;;;7.85;7.05;;;;;;;;;;5097908;28;20056;-80
2021/09/21 08:53:07;;;;;;;9.90;7.93;;;;;;;;;;5097390;28;20024;-80
2021/09/21 08:55:34;;;;;;;8.07;7.38;;;;;;;;;;5097855;28;20080;-79
2021/09/21 08:58:00;;;;;;;7.50;6.70;;;;;;;;;;5096746;28;20048;-76
2021/09/21 09:00:27;;;;;;;8.50;7.75;;;;;;;;;;5097099;28;20119;-77
2021/09/21 09:03:09;;;;;;;9.07;8.13;;;;;;;;;;5097364;28;20103;-78
2021/09/21 09:05:43;;;;;;;7.93;7.25;;;;;;;;;;5097291;28;20035;-80
2021/09/21 09:08:09;;;;;;;7.60;6.80;;;;;;;;;;5097309;28;20107;-79
2021/09/21 09:10:35;;;;;;;7.53;6.82;;;;;;;;;;5097769;28;20032;-80
2021/09/21 09:13:01;;;;;;;9.95;6.50;;;;;;;;;;5097631;28;20031;-80
2021/09/21 09:15:27;;;;;;;6.97;6.38;;;;;;;;;;5097327;28;20028;-80
2021/09/21 09:17:55;;;;;;;6.82;6.13;;;;;;;;;;5096942;28;20028;-80
2021/09/21 09:20:43;;;;;;;6.20;5.60;;;;;;;;;;5096101;28;20032;-80
2021/09/21 09:23:09;;;;;;;6.15;5.60;;;;;;;;;;5096012;28;20438;-80
2021/09/21 09:25:50;;;;;;;8.93;5.68;;;;;;;;;;5097222;28;20020;-80
2021/09/21 09:28:20;;;;;;;6.88;6.28;;;;;;;;;;5096617;28;20052;-80
2021/09/21 09:30:46;;;;;;;9.25;5.63;;;;;;;;;;5096714;28;20060;-80
2021/09/21 09:33:13;;;;;;;5.55;5.05;;;;;;;;;;5097236;28;20028;-77
2021/09/21 09:35:40;;;;;;;5.28;4.78;;;;;;;;;;5096940;28;20024;-78
2021/09/21 09:38:06;;;;;;;7.20;5.65;;;;;;;;;;5096476;28;20027;-77
2021/09/21 09:40:34;;;;;;;5.80;5.30;;;;;;;;;;5096554;28;20032;-79
2021/09/21 09:43:00;;;;;;;6.35;5.85;;;;;;;;;;5096384;28;20369;-78
2021/09/21 09:45:28;;;;;;;6.07;5.47;;;;;;;;;;5096390;28;20085;-79
2021/09/21 09:47:54;;;;;;;5.95;5.35;;;;;;;;;;5096707;28;20461;-79
2021/09/21 09:50:24;;;;;;;6.22;5.63;;;;;;;;;;5096376;28;20028;-79
2021/09/21 09:52:50;;;;;;;4.75;4.30;;;;;;;;;;5096652;28;20051;-80
2021/09/21 09:55:16;;;;;;;3.90;3.58;;;;;;;;;;5096454;28;20081;-80
2021/09/21 09:57:42;;;;;;;5.80;4.82;;;;;;;;;;5095757;28;20058;-77
2021/09/21 10:00:08;;;;;;;4.53;4.13;;;;;;;;;;5096054;28;20040;-78
2021/09/21 10:02:35;;;;;;;8.45;6.20;;;;;;;;;;5096214;28;20027;-77
2021/09/21 10:05:01;;;;;;;5.45;4.63;;;;;;;;;;5096661;28;20474;-78
2021/09/21 10:07:27;;;;;;;7.40;4.63;;;;;;;;;;5096105;28;20024;-79
2021/09/21 10:09:54;;;;;;;5.60;5.07;;;;;;;;;;5095919;28;20030;-80
2021/09/21 10:12:20;;;;;;;5.05;4.57;;;;;;;;;;5095638;28;20111;-78
2021/09/21 10:14:46;;;;;;;8.23;4.68;;;;;;;;;;5095905;28;20028;-79
2021/09/21 10:17:12;;;;;;;4.93;4.53;;;;;;;;;;5095986;28;20457;-79
2021/09/21 10:19:40;;;;;;;4.35;4.00;;;;;;;;;;5095964;28;20382;-79
2021/09/21 10:22:07;;;;;;;4.50;4.10;;;;;;;;;;5095661;28;20035;-79
2021/09/21 10:24:37;;;;;;;5.00;4.50;;;;;;;;;;5096009;28;20493;-80
2021/09/21 10:27:06;;;;;;;15.23;5.10;;;;;;;;;;5095797;28;20118;-78
2021/09/21 10:29:32;;;;;;;5.50;5.00;;;;;;;;;;5096029;28;20027;-78
2021/09/21 10:31:58;;;;;;;5.38;4.65;;;;;;;;;;5094832;28;20115;-78
2021/09/21 10:34:24;;;;;;;4.43;4.03;;;;;;;;;;5095694;28;20024;-78
2021/09/21 10:36:51;;;;;;;5.03;4.53;;;;;;;;;;5095323;28;20033;-78
2021/09/21 10:39:18;;;;;;;4.50;3.78;;;;;;;;;;5095287;28;20450;-78
2021/09/21 10:41:47;;;;;;;4.03;3.63;;;;;;;;;;5094915;28;20465;-76
2021/09/21 10:44:13;;;;;;;7.63;4.32;;;;;;;;;;5095340;28;20053;-79
2021/09/21 10:46:43;;;;;;;5.55;4.43;;;;;;;;;;5095077;28;20382;-78
2021/09/21 10:49:09;;;;;;;5.43;4.63;;;;;;;;;;5095260;28;20020;-77
2021/09/21 10:51:35;;;;;;;6.18;4.38;;;;;;;;;;5095174;28;20028;-76
2021/09/21 10:54:02;;;;;;;4.55;4.15;;;;;;;;;;5094789;28;20028;-80
2021/09/21 10:56:28;;;;;;;6.93;6.00;;;;;;;;;;5095074;28;20052;-78
2021/09/21 10:58:54;;;;;;;11.20;6.45;;;;;;;;;;5095191;28;20020;-79
2021/09/21 11:01:21;;;;;;;5.50;4.57;;;;;;;;;;5095342;28;20043;-79
2021/09/21 11:03:47;;;;;;;6.28;5.32;;;;;;;;;;5094979;28;20103;-77
2021/09/21 11:06:14;;;;;;;12.20;5.43;;;;;;;;;;5094319;28;20032;-82
2021/09/21 11:08:41;;;;;;;5.00;4.53;;;;;;;;;;5098100;28;20613;-80
2021/09/21 11:11:07;;;;;;;5.82;5.30;;;;;;;;;;5097045;28;20054;-78
2021/09/21 11:13:34;;;;;;;7.88;4.90;;;;;;;;;;5097728;28;20035;-77
2021/09/21 11:16:00;;;;;;;5.68;5.07;;;;;;;;;;5097196;28;20021;-78
2021/09/21 11:18:27;;;;;;;7.53;5.97;;;;;;;;;;5096295;28;20433;-81
2021/09/21 11:20:55;;;;;;;4.95;4.53;;;;;;;;;;5092671;28;20127;-79
2021/09/21 11:23:22;;;;;;;7.45;4.47;;;;;;;;;;5093158;28;20028;-80
2021/09/21 11:25:48;;;;;;;9.45;5.50;;;;;;;;;;5094674;28;20347;-78
2021/09/21 11:28:15;;;;;;;6.07;4.82;;;;;;;;;;5094631;28;20016;-80
2021/09/21 11:30:41;;;;;;;8.60;5.30;;;;;;;;;;5094596;28;20458;-78
2021/09/21 11:33:11;;;;;;;8.05;5.75;;;;;;;;;;5094021;28;20035;-76
2021/09/21 11:35:37;;;;;;;5.95;5.35;;;;;;;;;;5093134;28;20024;-75
2021/09/21 11:38:03;;;;;;;6.32;5.72;;;;;;;;;;5092763;28;20028;-75
2021/09/21 11:40:31;;;;;;;6.63;4.85;;;;;;;;;;5093396;28;20064;-76
2021/09/21 11:42:57;;;;;;;7.00;5.22;;;;;;;;;;5093147;28;20029;-77
2021/09/21 11:45:28;;;;;;;5.13;4.63;;;;;;;;;;5093941;28;20031;-77
2021/09/21 11:47:55;;;;;;;4.75;4.35;;;;;;;;;;5091822;28;20031;-77
2021/09/21 11:50:23;;;;;;;5.07;4.18;;;;;;;;;;5092790;28;20077;-77
2021/09/21 11:52:51;;;;;;;5.82;5.32;;;;;;;;;;5092860;28;20473;-77
2021/09/21 11:55:19;;;;;;;4.32;3.90;;;;;;;;;;5090804;28;20485;-77
2021/09/21 11:57:45;;;;;;;9.68;5.13;;;;;;;;;;5093184;28;20048;-77
2021/09/21 12:00:27;;;;;;;6.97;5.43;;;;;;;;;;5092339;28;20466;-77
2021/09/21 12:02:54;;;;;;;5.20;4.60;;;;;;;;;;5093045;28;20032;-77
2021/09/21 12:05:21;;;;;;;5.85;4.97;;;;;;;;;;5092403;28;20023;-78
2021/09/21 12:07:47;;;;;;;6.00;4.90;;;;;;;;;;5092680;28;20024;-79
2021/09/21 12:10:13;;;;;;;7.70;4.30;;;;;;;;;;5092476;28;20028;-78
2021/09/21 12:12:39;;;;;;;5.88;4.30;;;;;;;;;;5092636;28;20020;-76
2021/09/21 12:15:05;;;;;;;8.63;5.65;;;;;;;;;;5092559;28;20369;-77
2021/09/21 12:17:38;;;;;;;6.47;5.20;;;;;;;;;;5092242;28;20373;-77
2021/09/21 12:20:04;;;;;;;5.80;5.07;;;;;;;;;;5092377;28;20020;-76
2021/09/21 12:22:30;;;;;;;5.70;5.20;;;;;;;;;;5092709;28;20020;-77
2021/09/21 12:25:12;;;;;;;5.20;4.70;;;;;;;;;;5092571;28;21031;-77
2021/09/21 12:27:38;;;;;;;8.43;5.10;;;;;;;;;;5090532;28;20474;-77
2021/09/21 12:30:05;;;;;;;6.05;4.78;;;;;;;;;;5092368;28;20021;-77
2021/09/21 12:32:31;;;;;;;4.35;3.95;;;;;;;;;;5092536;28;20469;-77
2021/09/21 12:35:01;;;;;;;5.97;4.70;;;;;;;;;;5092551;28;20099;-76
2021/09/21 12:37:27;;;;;;;5.35;4.00;;;;;;;;;;5092721;28;20028;-76
2021/09/21 12:39:58;;;;;;;6.50;4.45;;;;;;;;;;5092090;28;20053;-76
2021/09/21 12:42:24;;;;;;;5.80;4.28;;;;;;;;;;5092146;28;20430;-76
2021/09/21 12:44:50;;;;;;;4.38;3.97;;;;;;;;;;5092439;28;20024;-76
2021/09/21 12:47:16;;;;;;;4.88;4.38;;;;;;;;;;5091907;28;20099;-76
2021/09/21 12:49:42;;;;;;;5.55;4.78;;;;;;;;;;5092221;28;20020;-76
2021/09/21 12:52:08;;;;;;;4.10;3.70;;;;;;;;;;5092146;28;20020;-76
2021/09/21 12:54:34;;;;;;;4.70;4.30;;;;;;;;;;5094021;28;20052;-77
2021/09/21 12:57:02;;;;;;;4.63;4.22;;;;;;;;;;5095478;28;20040;-77
2021/09/21 12:59:28;;;;;;;6.10;4.35;;;;;;;;;;5096194;28;20043;-77
2021/09/21 13:01:55;;;;;;;5.10;4.50;;;;;;;;;;5092338;28;20031;-75
2021/09/21 13:04:21;;;;;;;5.55;4.05;;;;;;;;;;5095821;28;20076;-79
2021/09/21 13:06:49;;;;;;;13.75;4.35;;;;;;;;;;5095794;28;20016;-76
2021/09/21 13:09:15;;;;;;;4.10;3.70;;;;;;;;;;5095696;28;20470;-76
2021/09/21 13:11:41;;;;;;;3.80;3.42;;;;;;;;;;5095766;28;20044;-77
2021/09/21 13:14:07;;;;;;;4.07;3.78;;;;;;;;;;5095007;28;20016;-76
2021/09/21 13:16:35;;;;;;;3.55;3.25;;;;;;;;;;5095670;28;20028;-83
2021/09/21 13:19:01;;;;;;;3.67;3.38;;;;;;;;;;5095594;28;20086;-76
2021/09/21 13:21:27;;;;;;;3.60;3.30;;;;;;;;;;5095858;28;20028;-76
2021/09/21 13:23:53;;;;;;;4.03;3.53;;;;;;;;;;5096927;28;20028;-81
2021/09/21 13:26:19;;;;;;;4.35;3.50;;;;;;;;;;5096507;28;20373;-82
2021/09/21 13:28:45;;;;;;;5.60;3.40;;;;;;;;;;5097012;28;20031;-82
2021/09/21 13:31:11;;;;;;;7.13;3.30;;;;;;;;;;5096566;28;20028;-82
2021/09/21 13:33:39;;;;;;;3.83;3.40;;;;;;;;;;5096572;28;20433;-81
2021/09/21 13:36:05;;;;;;;3.72;3.33;;;;;;;;;;5095768;28;20020;-80
2021/09/21 13:38:31;;;;;;;9.40;4.60;;;;;;;;;;5097907;28;20056;-79
2021/09/21 13:40:57;;;;;;;3.83;3.53;;;;;;;;;;5097964;28;20032;-79
2021/09/21 13:43:23;;;;;;;4.10;3.40;;;;;;;;;;5097587;28;20046;-79
2021/09/21 13:45:49;;;;;;;8.23;3.72;;;;;;;;;;5097708;28;20032;-79
2021/09/21 13:48:15;;;;;;;7.57;4.10;;;;;;;;;;5098156;28;20068;-81
2021/09/21 13:50:41;;;;;;;4.07;3.55;;;;;;;;;;5097577;28;20162;-78
2021/09/21 13:53:08;;;;;;;5.57;4.25;;;;;;;;;;5096102;28;20028;-78
2021/09/21 13:55:34;;;;;;;8.73;3.80;;;;;;;;;;5096747;28;20031;-77
2021/09/21 13:58:00;;;;;;;11.43;4.50;;;;;;;;;;5095375;28;20048;-79
2021/09/21 14:00:26;;;;;;;4.70;4.15;;;;;;;;;;5095337;28;20118;-77
2021/09/21 14:02:52;;;;;;;3.75;3.45;;;;;;;;;;5096649;28;20492;-78
2021/09/21 14:05:18;;;;;;;10.52;3.85;;;;;;;;;;5095922;28;20047;-74
2021/09/21 14:07:45;;;;;;;14.65;3.67;;;;;;;;;;5095755;28;20028;-76
2021/09/21 14:10:11;;;;;;;6.78;3.22;;;;;;;;;;5095097;28;20068;-77
2021/09/21 14:12:38;;;;;;;9.82;3.90;;;;;;;;;;5095441;28;20052;-75
2021/09/21 14:15:04;;;;;;;4.55;4.15;;;;;;;;;;5095940;28;20036;-76
2021/09/21 14:17:31;;;;;;;3.92;3.42;;;;;;;;;;5095645;28;20679;-77
2021/09/21 14:19:57;;;;;;;4.18;3.83;;;;;;;;;;5095210;28;20020;-80
2021/09/21 14:22:23;;;;;;;5.63;3.83;;;;;;;;;;5096067;28;20477;-80
2021/09/21 14:24:52;;;;;;;4.20;3.75;;;;;;;;;;5095586;28;20031;-80
2021/09/21 14:27:18;;;;;;;4.90;4.28;;;;;;;;;;5096054;28;20069;-81
2021/09/21 14:29:44;;;;;;;5.50;3.60;;;;;;;;;;5097139;28;20021;-80
2021/09/21 14:32:11;;;;;;;4.40;3.83;;;;;;;;;;5098077;28;20055;-80
2021/09/21 14:34:37;;;;;;;5.93;4.75;;;;;;;;;;5099097;28;20469;-85
2021/09/21 14:37:03;;;;;;;4.95;4.03;;;;;;;;;;5097714;28;20070;-83
2021/09/21 14:39:29;;;;;;;4.20;3.80;;;;;;;;;;5096974;28;20028;-83
2021/09/21 14:41:55;;;;;;;5.53;3.88;;;;;;;;;;5094928;28;20120;-83
2021/09/21 14:44:21;;;;;;;4.53;3.58;;;;;;;;;;5094521;28;20077;-78